Time;durP1;ratioP1;P1;durP2;ratioP2;P2;SDS_P1;SDS_P2;PMS_P1;PMS_P2;Temp;Humidity;BMP_temperature;BMP_pressure;BME280_temperature;BME280_humidity;BME280_pressure;Samples;Min_cycle;Max_cycle;Signal;HPM_P1;HPM_P2
2022/07/12 00:00:16;;;;;;;2.73;2.53;;;15.70;99.90;;;;;;5004582;28;20467;-71
2022/07/12 00:03:38;;;;;;;2.67;2.47;;;15.60;99.90;;;;;;5002317;28;20458;-72
2022/07/12 00:09:59;;;;;;;3.30;3.00;;;15.50;99.90;;;;;;5006017;28;20912;-71
2022/07/12 00:13:17;;;;;;;3.60;3.27;;;15.50;99.90;;;;;;5003126;28;20511;-71
2022/07/12 00:16:11;;;;;;;3.87;3.57;;;15.50;99.90;;;;;;4999881;28;20448;-71
2022/07/12 00:19:22;;;;;;;3.33;3.03;;;15.50;99.90;;;;;;5007369;28;20457;-71
2022/07/12 00:22:19;;;;;;;3.50;3.20;;;15.50;99.90;;;;;;5004916;28;20849;-72
2022/07/12 00:25:19;;;;;;;3.57;3.27;;;15.40;99.90;;;;;;5002253;28;20988;-71
2022/07/12 00:28:38;;;;;;;3.57;3.27;;;15.40;99.90;;;;;;5010284;28;20988;-74
2022/07/12 00:31:56;;;;;;;3.43;3.23;;;15.30;99.90;;;;;;5010636;28;20551;-72
2022/07/12 00:38:33;;;;;;;3.20;3.00;;;15.30;99.90;;;;;;5013814;28;20610;-71
2022/07/12 00:45:08;;;;;;;3.40;3.17;;;15.20;99.90;;;;;;5002987;28;20457;-71
2022/07/12 00:48:13;;;;;;;3.40;3.20;;;15.20;99.90;;;;;;5007871;28;20566;-71
2022/07/12 00:51:04;;;;;;;3.57;2.87;;;15.20;99.90;;;;;;5003576;28;20549;-72
2022/07/12 00:54:07;;;;;;;3.27;2.97;;;15.20;99.90;;;;;;5004044;28;20476;-71
2022/07/12 00:56:55;;;;;;;3.33;3.10;;;15.10;99.90;;;;;;5005862;28;20926;-71
2022/07/12 01:06:56;;;;;;;3.80;3.30;;;15.00;99.90;;;;;;4964928;28;20458;-71
2022/07/12 01:13:45;;;;;;;4.10;3.70;;;15.00;99.90;;;;;;5024605;22;20871;-75
2022/07/12 01:16:37;;;;;;;3.10;2.90;;;15.00;99.90;;;;;;5014870;28;20984;-74
2022/07/12 01:19:34;;;;;;;3.90;3.60;;;14.90;99.90;;;;;;5020932;28;20448;-73
2022/07/12 01:22:33;;;;;;;3.40;3.10;;;14.90;99.90;;;;;;5021542;28;20575;-73
2022/07/12 01:25:28;;;;;;;3.27;3.07;;;14.80;99.90;;;;;;5019214;28;20858;-73
2022/07/12 01:28:17;;;;;;;3.20;2.90;;;14.80;99.90;;;;;;5020018;28;20449;-72
2022/07/12 01:31:27;;;;;;;3.30;3.10;;;14.80;99.90;;;;;;5020386;28;20463;-73
2022/07/12 01:34:27;;;;;;;3.90;3.60;;;14.70;99.90;;;;;;5036704;28;20475;-73
2022/07/12 01:37:24;;;;;;;3.23;3.03;;;14.70;99.90;;;;;;5033419;28;20493;-72
2022/07/12 01:44:09;;;;;;;4.00;3.70;;;14.60;99.90;;;;;;5021677;28;20550;-73
2022/07/12 01:50:19;;;;;;;3.57;3.27;;;14.60;99.90;;;;;;5028452;28;20539;-73
2022/07/12 01:53:24;;;;;;;4.07;3.67;;;14.50;99.90;;;;;;5025330;28;20471;-73
2022/07/12 02:09:20;;;;;;;4.10;3.80;;;14.40;99.90;;;;;;5023079;28;20479;-73
2022/07/12 02:12:22;;;;;;;3.87;3.57;;;14.30;99.90;;;;;;5020995;28;20802;-72
2022/07/12 02:15:28;;;;;;;3.50;3.20;;;14.30;99.90;;;;;;5026081;28;20608;-73
2022/07/12 02:18:32;;;;;;;3.70;3.40;;;14.30;99.90;;;;;;5022682;28;20501;-73
2022/07/12 02:21:27;;;;;;;3.30;3.10;;;14.20;99.90;;;;;;5020416;28;20463;-73
2022/07/12 02:24:15;;;;;;;3.53;3.27;;;14.20;99.90;;;;;;5027699;28;20589;-73
2022/07/12 02:27:18;;;;;;;4.00;3.60;;;14.20;99.90;;;;;;5029002;28;20541;-72
2022/07/12 02:30:33;;;;;;;4.03;3.73;;;14.20;99.90;;;;;;5022936;28;20931;-73
2022/07/12 02:34:00;;;;;;;4.03;3.73;;;14.20;99.90;;;;;;5028981;28;21110;-73
2022/07/12 02:36:48;;;;;;;3.80;3.50;;;14.10;99.90;;;;;;5040117;28;20511;-73
2022/07/12 02:39:47;;;;;;;;;;;;;;;;;;;;;
2022/07/12 02:43:05;;;;;;;;;;;;;;;;;;;;;
2022/07/12 02:46:35;;;;;;;4.00;3.70;;;14.10;99.90;;;;;;5023517;28;20463;-73
2022/07/12 02:49:38;;;;;;;3.73;3.43;;;14.00;99.90;;;;;;5022754;28;20844;-73
2022/07/12 02:52:57;;;;;;;3.90;3.60;;;14.00;99.90;;;;;;5027414;28;20486;-73
2022/07/12 02:56:24;;;;;;;5.30;3.63;;;14.00;99.90;;;;;;5026534;28;21065;-73
2022/07/12 02:59:38;;;;;;;4.40;4.00;;;13.90;99.90;;;;;;5025825;28;20554;-73
2022/07/12 03:02:28;;;;;;;3.90;3.60;;;13.90;99.90;;;;;;5024844;28;20479;-73
2022/07/12 03:05:45;;;;;;;4.47;4.10;;;13.90;99.90;;;;;;5020964;28;20474;-73
2022/07/12 03:09:06;;;;;;;3.60;3.30;;;13.90;99.90;;;;;;5023571;28;20566;-73
2022/07/12 03:12:12;;;;;;;3.93;3.63;;;13.80;99.90;;;;;;5023160;28;20475;-73
2022/07/12 03:18:33;;;;;;;4.07;3.73;;;13.80;99.90;;;;;;5020744;28;20495;-72
2022/07/12 03:21:22;;;;;;;4.13;3.83;;;13.80;99.90;;;;;;5021832;28;20479;-72
2022/07/12 03:24:13;;;;;;;4.50;4.10;;;13.80;99.90;;;;;;5018200;28;20988;-73
2022/07/12 03:27:14;;;;;;;4.30;3.90;;;13.80;99.90;;;;;;5016225;28;20447;-73
2022/07/12 03:30:10;;;;;;;4.67;4.27;;;13.70;99.90;;;;;;5027794;28;20459;-73
2022/07/12 03:33:14;;;;;;;3.90;3.60;;;13.70;99.90;;;;;;5019110;28;20478;-73
2022/07/12 03:36:24;;;;;;;4.40;4.00;;;13.70;99.90;;;;;;5023950;28;20452;-72
2022/07/12 03:39:33;;;;;;;4.23;3.83;;;13.70;99.90;;;;;;5023465;28;20464;-73
2022/07/12 03:42:27;;;;;;;4.27;3.97;;;13.70;99.90;;;;;;5029047;28;20570;-72
2022/07/12 03:45:17;;;;;;;4.60;4.20;;;13.70;99.90;;;;;;5029699;28;20460;-72
2022/07/12 03:48:06;;;;;;;4.23;3.73;;;13.70;99.90;;;;;;5025823;28;20483;-73
2022/07/12 03:51:10;;;;;;;4.83;4.43;;;13.70;99.90;;;;;;5026706;28;21046;-73
2022/07/12 03:54:37;;;;;;;5.20;4.20;;;13.70;99.90;;;;;;5022773;28;20483;-72
2022/07/12 03:57:57;;;;;;;5.03;4.60;;;13.70;99.90;;;;;;5022649;28;20560;-72
2022/07/12 04:01:19;;;;;;;4.90;4.33;;;13.80;99.90;;;;;;5020563;28;21095;-73
2022/07/12 04:04:29;;;;;;;5.13;4.70;;;13.80;99.90;;;;;;5019796;28;20486;-73
2022/07/12 04:07:45;;;;;;;5.20;4.70;;;13.80;99.90;;;;;;5015136;28;20458;-73
2022/07/12 04:11:18;;;;;;;5.97;5.37;;;13.80;99.90;;;;;;5022995;28;20454;-73
2022/07/12 04:14:35;;;;;;;6.43;5.70;;;13.90;99.90;;;;;;5023983;28;20475;-73
2022/07/12 04:17:49;;;;;;;5.23;4.73;;;13.90;99.90;;;;;;5021916;28;20472;-73
2022/07/12 04:20:48;;;;;;;6.47;5.87;;;13.90;99.90;;;;;;5021654;28;20451;-73
2022/07/12 04:24:00;;;;;;;7.37;6.57;;;14.00;99.90;;;;;;5026983;28;20582;-73
2022/07/12 04:27:17;;;;;;;6.00;5.50;;;14.00;99.90;;;;;;5022181;28;20533;-72
2022/07/12 04:34:16;;;;;;;5.97;5.40;;;14.10;99.90;;;;;;4986036;28;20802;-73
2022/07/12 04:37:16;;;;;;;7.00;6.30;;;14.10;99.90;;;;;;5024382;28;20630;-73
2022/07/12 04:40:24;;;;;;;6.40;5.60;;;14.10;99.90;;;;;;5031919;28;20604;-72
2022/07/12 04:43:29;;;;;;;6.20;5.60;;;14.20;99.90;;;;;;5019150;28;20472;-72
2022/07/12 04:46:35;;;;;;;6.20;5.63;;;14.20;99.90;;;;;;5018574;28;20454;-72
2022/07/12 04:49:42;;;;;;;7.30;6.60;;;14.30;99.90;;;;;;5021192;28;20976;-72
2022/07/12 04:52:31;;;;;;;6.50;5.80;;;14.30;99.90;;;;;;5019121;28;20557;-72
2022/07/12 04:59:13;;;;;;;7.47;6.77;;;14.50;99.90;;;;;;5017945;28;20447;-72
2022/07/12 05:02:13;;;;;;;7.80;7.00;;;14.50;99.90;;;;;;5013076;28;20467;-72
2022/07/12 05:05:01;;;;;;;6.60;6.00;;;14.60;99.90;;;;;;5023999;28;20435;-72
2022/07/12 05:08:16;;;;;;;8.00;6.70;;;14.60;99.90;;;;;;5020967;28;20491;-72
2022/07/12 05:14:39;;;;;;;7.67;6.97;;;14.70;99.90;;;;;;5026328;28;20452;-72
2022/07/12 05:17:46;;;;;;;9.13;7.33;;;14.80;99.90;;;;;;5017846;28;20491;-72
2022/07/12 05:20:48;;;;;;;7.37;6.73;;;14.90;99.90;;;;;;5014650;28;20778;-73
2022/07/12 05:26:55;;;;;;;7.03;6.43;;;15.00;99.90;;;;;;5008521;28;20521;-71
2022/07/12 05:30:04;;;;;;;7.43;5.87;;;15.10;99.90;;;;;;4939293;28;20546;-71
2022/07/12 05:33:03;;;;;;;6.10;5.60;;;15.10;99.90;;;;;;4928886;28;20471;-71
2022/07/12 05:35:58;;;;;;;6.47;5.87;;;15.20;99.90;;;;;;4933463;28;21041;-72
2022/07/12 05:38:55;;;;;;;6.20;5.70;;;15.30;99.90;;;;;;4935609;28;20491;-72
2022/07/12 05:42:14;;;;;;;5.77;5.17;;;15.30;99.90;;;;;;4939673;28;20594;-70
2022/07/12 05:45:30;;;;;;;4.57;4.17;;;15.30;99.90;;;;;;4937137;28;21071;-71
2022/07/12 05:49:13;;;;;;;4.73;4.33;;;15.40;99.90;;;;;;5006285;28;20555;-71
2022/07/12 05:55:38;;;;;;;4.90;4.50;;;15.50;99.90;;;;;;5023276;28;20452;-70
2022/07/12 05:58:33;;;;;;;4.27;3.87;;;15.60;99.90;;;;;;5022767;28;20527;-70
2022/07/12 06:01:31;;;;;;;4.63;4.23;;;15.60;99.90;;;;;;5018984;28;20467;-70
2022/07/12 06:04:24;;;;;;;4.17;3.77;;;15.70;99.90;;;;;;5002071;28;20899;-70
2022/07/12 06:07:12;;;;;;;3.90;3.60;;;15.70;99.90;;;;;;5014626;28;20447;-71
2022/07/12 06:10:08;;;;;;;5.17;3.83;;;15.80;99.90;;;;;;5021620;28;20459;-70
2022/07/12 06:13:01;;;;;;;3.33;3.03;;;15.90;99.90;;;;;;5041185;28;20495;-70
2022/07/12 06:16:00;;;;;;;3.10;2.80;;;15.90;99.90;;;;;;5041082;28;20460;-70
2022/07/12 06:18:52;;;;;;;2.87;2.67;;;16.00;99.90;;;;;;5034889;28;20985;-70
2022/07/12 06:21:51;;;;;;;3.20;2.90;;;16.10;99.90;;;;;;5021826;28;20829;-72
2022/07/12 06:24:43;;;;;;;2.80;2.60;;;16.20;99.90;;;;;;5023336;28;20477;-70
2022/07/12 06:27:32;;;;;;;3.10;2.90;;;16.20;99.90;;;;;;5012284;28;20478;-70
2022/07/12 06:30:25;;;;;;;3.50;3.20;;;16.30;99.90;;;;;;5020314;28;20491;-70
2022/07/12 06:33:15;;;;;;;3.10;2.90;;;16.30;99.90;;;;;;5021151;28;20471;-70
2022/07/12 06:36:05;;;;;;;2.83;2.60;;;16.40;99.90;;;;;;5022143;28;20494;-70
2022/07/12 06:38:53;;;;;;;4.63;3.43;;;16.40;99.90;;;;;;5021164;28;20479;-71
2022/07/12 06:41:45;;;;;;;4.40;3.40;;;16.50;99.90;;;;;;5025255;28;20507;-70
2022/07/12 06:44:34;;;;;;;3.53;3.23;;;16.50;99.90;;;;;;5021267;28;20534;-72
2022/07/12 06:47:25;;;;;;;3.30;3.00;;;16.60;99.90;;;;;;5019820;28;20546;-70
2022/07/12 06:50:14;;;;;;;3.07;2.87;;;16.70;99.90;;;;;;5022286;28;20505;-70
2022/07/12 06:53:06;;;;;;;3.10;2.77;;;16.70;99.90;;;;;;5020758;28;20574;-70
2022/07/12 06:55:54;;;;;;;2.67;2.50;;;16.80;99.90;;;;;;5020545;28;20913;-72
2022/07/12 06:58:45;;;;;;;3.67;2.70;;;16.80;99.90;;;;;;5018171;28;20471;-70
2022/07/12 07:01:38;;;;;;;3.43;3.13;;;16.90;99.90;;;;;;5021770;28;20989;-70
2022/07/12 07:04:31;;;;;;;3.30;2.67;;;16.90;99.90;;;;;;5019796;28;20968;-70
2022/07/12 07:07:34;;;;;;;2.80;2.60;;;17.00;99.90;;;;;;5021426;28;20521;-70
2022/07/12 07:10:29;;;;;;;2.60;2.40;;;17.10;99.90;;;;;;5028131;28;20466;-70
2022/07/12 07:13:18;;;;;;;2.60;2.40;;;17.10;99.90;;;;;;5042893;22;20566;-73
2022/07/12 07:16:07;;;;;;;2.97;2.77;;;17.10;99.90;;;;;;5019926;28;21022;-73
2022/07/12 07:18:56;;;;;;;2.80;2.60;;;17.20;99.90;;;;;;5023350;28;20475;-73
2022/07/12 07:21:45;;;;;;;2.50;2.30;;;17.20;99.90;;;;;;5027643;28;20443;-73
2022/07/12 07:24:33;;;;;;;2.63;2.43;;;17.30;99.90;;;;;;5022134;28;20460;-73
2022/07/12 07:27:24;;;;;;;2.27;2.07;;;17.40;99.90;;;;;;5023236;28;20459;-73
2022/07/12 07:33:20;;;;;;;2.50;2.30;;;17.40;99.90;;;;;;5005549;28;20637;-73
2022/07/12 07:36:09;;;;;;;2.73;2.20;;;17.40;99.90;;;;;;5020838;28;20453;-73
2022/07/12 07:38:59;;;;;;;2.40;2.20;;;17.40;99.90;;;;;;5016157;28;21041;-73
2022/07/12 07:41:47;;;;;;;3.03;2.40;;;17.50;99.90;;;;;;5015944;28;20564;-73
2022/07/12 07:44:37;;;;;;;2.67;2.50;;;17.60;99.90;;;;;;5012000;28;20933;-73
2022/07/12 07:47:46;;;;;;;3.00;2.80;;;17.60;99.90;;;;;;5021998;28;20521;-73
2022/07/12 07:50:54;;;;;;;2.67;2.47;;;17.70;99.90;;;;;;5021182;28;20975;-73
2022/07/12 07:53:45;;;;;;;2.83;2.63;;;17.80;99.90;;;;;;5022389;28;20461;-73
2022/07/12 07:56:33;;;;;;;2.40;2.20;;;17.90;99.90;;;;;;5018851;28;20542;-73
2022/07/12 07:59:23;;;;;;;2.30;2.20;;;17.90;99.90;;;;;;5022189;28;20478;-73
2022/07/12 08:02:28;;;;;;;2.47;2.27;;;18.00;99.90;;;;;;5013197;28;20503;-73
2022/07/12 08:05:22;;;;;;;2.57;2.43;;;18.10;99.90;;;;;;5017365;28;20997;-72
2022/07/12 08:08:16;;;;;;;2.60;2.40;;;18.10;99.90;;;;;;5017931;28;20453;-72
2022/07/12 08:11:05;;;;;;;3.20;2.83;;;18.10;99.90;;;;;;5019056;28;20456;-72
2022/07/12 08:13:57;;;;;;;2.50;2.30;;;18.20;99.90;;;;;;5020880;28;20570;-71
2022/07/12 08:16:52;;;;;;;2.43;2.23;;;18.20;99.90;;;;;;5020733;28;20943;-72
2022/07/12 08:19:41;;;;;;;2.80;2.47;;;18.30;99.90;;;;;;5022734;28;20567;-72
2022/07/12 08:22:31;;;;;;;3.20;2.90;;;18.30;99.90;;;;;;5018403;28;20727;-72
2022/07/12 08:25:22;;;;;;;2.60;2.40;;;18.30;99.90;;;;;;5011714;28;21035;-72
2022/07/12 08:28:10;;;;;;;2.47;2.27;;;18.30;99.90;;;;;;5038162;28;20525;-73
2022/07/12 08:30:58;;;;;;;2.30;2.10;;;18.30;99.90;;;;;;5018434;28;20972;-72
2022/07/12 08:33:50;;;;;;;4.00;3.03;;;18.40;99.90;;;;;;5024121;28;21147;-72
2022/07/12 08:36:43;;;;;;;2.77;2.27;;;18.40;99.90;;;;;;5021900;28;20471;-72
2022/07/12 08:39:32;;;;;;;2.40;2.20;;;18.50;99.90;;;;;;5021209;28;20576;-73
2022/07/12 08:42:20;;;;;;;2.90;2.20;;;18.40;99.90;;;;;;5025053;28;20479;-74
2022/07/12 08:45:20;;;;;;;2.30;2.20;;;18.50;99.90;;;;;;5026627;28;20451;-74
2022/07/12 08:48:09;;;;;;;2.20;2.10;;;18.60;99.90;;;;;;5018159;28;20454;-74
2022/07/12 08:51:08;;;;;;;1.77;1.67;;;18.60;99.90;;;;;;5029570;28;20532;-73
2022/07/12 08:54:11;;;;;;;3.13;2.83;;;18.60;99.90;;;;;;5026180;28;20494;-71
2022/07/12 08:57:00;;;;;;;2.60;2.40;;;18.60;99.90;;;;;;5030178;28;20514;-72
2022/07/12 08:59:59;;;;;;;2.30;2.10;;;18.70;99.90;;;;;;5026476;28;20577;-71
2022/07/12 09:02:49;;;;;;;2.90;2.20;;;18.80;99.90;;;;;;5023366;28;20467;-72
2022/07/12 09:06:06;;;;;;;2.30;2.10;;;18.80;99.90;;;;;;5015356;28;20834;-72
2022/07/12 09:08:56;;;;;;;2.20;2.10;;;18.80;99.90;;;;;;5008442;28;20853;-72
2022/07/12 09:11:48;;;;;;;3.63;2.40;;;18.80;99.90;;;;;;5031056;28;20545;-72
2022/07/12 09:14:39;;;;;;;3.27;2.43;;;18.80;99.90;;;;;;5026136;28;20506;-71
2022/07/12 09:17:27;;;;;;;4.23;2.30;;;18.90;99.90;;;;;;5026247;28;20537;-71
2022/07/12 09:20:18;;;;;;;2.80;2.30;;;18.80;99.90;;;;;;5028439;28;20841;-71
2022/07/12 09:23:10;;;;;;;2.50;2.17;;;18.80;99.90;;;;;;5030468;28;20520;-72
2022/07/12 09:26:01;;;;;;;2.37;2.17;;;18.90;99.90;;;;;;5026069;28;20456;-72
2022/07/12 09:28:52;;;;;;;2.30;2.10;;;18.90;99.90;;;;;;5024559;28;20797;-72
2022/07/12 09:38:09;;;;;;;2.13;2.00;;;18.90;99.90;;;;;;5024784;28;20471;-72
2022/07/12 09:41:03;;;;;;;2.23;2.13;;;19.00;99.90;;;;;;5026632;28;21029;-72
2022/07/12 09:43:56;;;;;;;3.20;1.80;;;19.00;99.90;;;;;;5028427;28;20487;-72
2022/07/12 09:46:49;;;;;;;2.90;2.40;;;19.10;99.90;;;;;;5023376;28;20439;-72
2022/07/12 09:49:38;;;;;;;2.33;2.23;;;19.20;99.90;;;;;;5027340;28;20894;-73
2022/07/12 09:52:49;;;;;;;1.93;1.83;;;19.20;99.90;;;;;;5034112;28;20476;-72
2022/07/12 09:55:59;;;;;;;2.30;2.20;;;19.20;99.90;;;;;;5019030;28;20966;-73
2022/07/12 09:58:57;;;;;;;2.20;2.00;;;19.30;99.90;;;;;;5016612;28;20771;-73
2022/07/12 10:01:54;;;;;;;2.20;2.10;;;19.30;99.90;;;;;;5017940;28;20452;-72
2022/07/12 10:04:43;;;;;;;2.03;1.70;;;19.40;99.90;;;;;;5017920;28;20610;-73
2022/07/12 10:07:40;;;;;;;2.27;2.07;;;19.50;99.90;;;;;;5019104;28;21084;-72
2022/07/12 10:10:31;;;;;;;2.23;2.07;;;19.60;99.90;;;;;;5025146;28;20451;-73
2022/07/12 10:13:39;;;;;;;2.17;2.07;;;19.70;99.90;;;;;;5019086;28;20478;-72
2022/07/12 10:16:39;;;;;;;2.53;1.73;;;19.80;99.90;;;;;;5025799;28;20849;-73
2022/07/12 10:19:35;;;;;;;2.00;1.87;;;19.90;99.90;;;;;;5020833;28;20471;-72
2022/07/12 10:22:42;;;;;;;2.27;2.17;;;20.00;99.90;;;;;;5023788;28;20471;-74
2022/07/12 10:29:39;;;;;;;2.40;2.20;;;20.10;99.90;;;;;;5019723;28;20516;-74
2022/07/12 10:32:36;;;;;;;39.03;29.50;;;20.20;99.90;;;;;;5021509;28;20573;-71
2022/07/12 10:38:32;;;;;;;7.17;6.17;;;20.50;99.90;;;;;;5019198;28;20549;-72
2022/07/12 10:41:21;;;;;;;7.93;7.13;;;20.60;99.90;;;;;;5028698;28;20618;-72
2022/07/12 10:44:10;;;;;;;4.80;4.10;;;20.70;99.90;;;;;;5020314;28;21107;-72
2022/07/12 10:47:00;;;;;;;4.23;3.80;;;20.80;99.90;;;;;;5019163;28;21168;-71
2022/07/12 10:49:53;;;;;;;4.13;2.80;;;20.90;99.90;;;;;;5021071;28;20444;-71
2022/07/12 10:52:41;;;;;;;2.80;2.60;;;21.00;99.90;;;;;;5013556;28;20549;-71
2022/07/12 10:55:29;;;;;;;1.93;1.83;;;21.00;99.90;;;;;;5027935;28;20537;-72
2022/07/12 10:58:31;;;;;;;3.50;2.90;;;21.10;99.90;;;;;;5028514;28;20984;-71
2022/07/12 11:01:21;;;;;;;2.93;2.30;;;21.10;99.90;;;;;;5025041;28;21715;-70
2022/07/12 11:04:28;;;;;;;2.77;2.57;;;21.20;99.90;;;;;;5027927;28;20460;-71
2022/07/12 11:07:19;;;;;;;2.40;2.20;;;21.20;99.90;;;;;;5019332;28;21224;-71
2022/07/12 11:10:08;;;;;;;2.40;2.10;;;21.30;99.90;;;;;;5023656;28;20449;-71
2022/07/12 11:12:56;;;;;;;2.20;2.00;;;21.40;99.90;;;;;;5021634;28;20927;-72
2022/07/12 11:15:56;;;;;;;3.10;2.20;;;21.50;99.90;;;;;;5022961;28;20500;-71
2022/07/12 11:18:45;;;;;;;2.43;2.27;;;21.60;99.90;;;;;;5025359;28;20988;-71
2022/07/12 11:21:34;;;;;;;2.10;1.90;;;21.80;99.90;;;;;;5022028;28;21025;-71
2022/07/12 11:24:25;;;;;;;2.23;2.10;;;21.90;99.90;;;;;;5026454;28;20452;-71
2022/07/12 11:27:14;;;;;;;2.00;1.90;;;22.00;99.90;;;;;;5019207;28;20764;-70
2022/07/12 11:30:04;;;;;;;2.10;1.90;;;22.10;99.90;;;;;;5027969;28;20478;-71
2022/07/12 11:35:59;;;;;;;1.90;1.80;;;22.30;99.90;;;;;;5026678;28;20949;-73
2022/07/12 11:38:48;;;;;;;1.60;1.50;;;22.40;99.90;;;;;;5024266;28;20463;-71
2022/07/12 11:41:37;;;;;;;1.63;1.53;;;22.50;99.90;;;;;;5028334;28;20475;-71
2022/07/12 11:44:42;;;;;;;1.80;1.70;;;22.60;99.90;;;;;;5027814;28;20452;-74
2022/07/12 11:47:33;;;;;;;1.80;1.70;;;22.70;99.90;;;;;;5024138;28;20452;-71
2022/07/12 11:50:44;;;;;;;2.03;1.60;;;22.80;99.90;;;;;;5030494;28;20972;-71
2022/07/12 11:53:34;;;;;;;1.60;1.50;;;23.00;99.90;;;;;;5024151;28;20484;-72
2022/07/12 11:56:30;;;;;;;1.67;1.57;;;23.10;99.90;;;;;;5025930;28;20503;-72
2022/07/12 11:59:24;;;;;;;1.80;1.70;;;23.20;99.90;;;;;;5026776;28;20452;-72
2022/07/12 12:02:15;;;;;;;1.70;1.60;;;23.30;99.90;;;;;;5021375;28;20499;-72
2022/07/12 12:05:05;;;;;;;1.90;1.80;;;23.40;99.90;;;;;;5028313;28;20470;-72
2022/07/12 12:08:12;;;;;;;1.63;1.43;;;23.60;99.90;;;;;;5024834;28;20467;-72
2022/07/12 12:11:03;;;;;;;1.80;1.70;;;23.60;99.90;;;;;;5023664;28;21038;-72
2022/07/12 12:13:57;;;;;;;1.73;1.63;;;23.80;99.90;;;;;;5024756;28;20633;-72
2022/07/12 12:16:50;;;;;;;1.50;1.40;;;23.90;99.90;;;;;;5028125;28;20538;-72
2022/07/12 12:19:56;;;;;;;1.60;1.50;;;24.00;99.90;;;;;;5018571;28;20474;-71
2022/07/12 12:22:44;;;;;;;1.30;1.27;;;24.10;99.90;;;;;;5019983;28;20468;-72
2022/07/12 12:25:34;;;;;;;1.87;1.50;;;24.20;99.90;;;;;;5025992;28;20459;-72
2022/07/12 12:28:27;;;;;;;1.40;1.30;;;24.30;99.90;;;;;;5027319;28;20957;-72
2022/07/12 12:31:16;;;;;;;1.50;1.40;;;24.40;99.90;;;;;;5023940;28;20483;-72
2022/07/12 12:34:13;;;;;;;1.70;1.57;;;24.50;99.90;;;;;;5023482;28;20521;-72
2022/07/12 12:37:04;;;;;;;1.10;1.10;;;24.50;99.90;;;;;;5026193;28;20459;-72
2022/07/12 12:39:53;;;;;;;1.37;1.30;;;24.60;99.90;;;;;;5024747;28;20592;-72
2022/07/12 12:43:09;;;;;;;1.30;1.30;;;24.70;99.90;;;;;;5023901;28;20477;-71
2022/07/12 12:45:58;;;;;;;1.60;1.50;;;24.80;99.90;;;;;;5024000;28;20452;-72
2022/07/12 12:48:49;;;;;;;1.70;1.60;;;24.80;99.90;;;;;;5025939;28;20448;-72
2022/07/12 12:51:55;;;;;;;1.63;1.53;;;24.90;99.90;;;;;;5018941;28;20483;-72
2022/07/12 12:54:45;;;;;;;1.67;1.57;;;25.00;99.90;;;;;;5025172;28;20593;-72
2022/07/12 12:57:33;;;;;;;1.90;1.80;;;25.10;99.90;;;;;;5024245;28;20439;-72
2022/07/12 13:03:31;;;;;;;1.30;1.20;;;25.20;99.90;;;;;;5018584;28;20570;-73
2022/07/12 13:09:29;;;;;;;1.63;1.63;;;25.50;99.90;;;;;;5028549;28;20451;-73
2022/07/12 13:12:17;;;;;;;1.50;1.40;;;25.50;99.90;;;;;;5038674;22;20858;-71
2022/07/12 13:15:07;;;;;;;1.40;1.30;;;25.60;99.90;;;;;;4992417;28;20473;-70
2022/07/12 13:18:16;;;;;;;1.37;1.27;;;25.70;99.90;;;;;;5000763;28;20528;-70
2022/07/12 13:21:04;;;;;;;1.50;1.40;;;25.80;99.90;;;;;;5004107;28;20494;-71
2022/07/12 13:23:52;;;;;;;2.77;1.70;;;25.80;99.90;;;;;;4988097;28;20480;-71
2022/07/12 13:26:42;;;;;;;1.17;1.17;;;25.90;99.90;;;;;;4987894;28;20453;-71
2022/07/12 13:33:03;;;;;;;1.10;1.10;;;26.00;99.90;;;;;;4975739;28;20564;-71
2022/07/12 13:35:51;;;;;;;1.10;1.10;;;26.10;99.90;;;;;;4988253;28;20461;-72
2022/07/12 13:38:40;;;;;;;1.33;1.17;;;26.20;99.90;;;;;;4980091;28;20555;-71
2022/07/12 13:41:28;;;;;;;1.50;1.40;;;26.30;99.90;;;;;;4974535;28;21175;-71
2022/07/12 13:44:17;;;;;;;1.40;1.30;;;26.30;99.90;;;;;;4982762;28;20552;-71
2022/07/12 13:47:10;;;;;;;1.47;1.20;;;26.40;99.90;;;;;;4985323;28;20517;-70
2022/07/12 13:49:59;;;;;;;1.20;1.10;;;26.50;99.90;;;;;;4968109;28;20528;-72
2022/07/12 13:52:52;;;;;;;1.73;1.40;;;26.70;99.90;;;;;;4978209;28;20477;-72
2022/07/12 13:55:43;;;;;;;1.10;1.10;;;26.80;99.90;;;;;;4977791;28;20820;-71
2022/07/12 13:58:35;;;;;;;1.13;1.10;;;27.00;99.90;;;;;;4985925;28;20451;-71
2022/07/12 14:01:30;;;;;;;1.10;1.10;;;27.10;99.90;;;;;;4981460;28;20516;-71
2022/07/12 14:04:18;;;;;;;1.10;1.10;;;27.20;99.90;;;;;;4975959;28;20480;-72
2022/07/12 14:07:07;;;;;;;1.53;1.43;;;27.30;99.90;;;;;;4973321;28;20457;-71
2022/07/12 14:09:55;;;;;;;2.80;1.40;;;27.40;99.90;;;;;;4977489;28;20541;-72
2022/07/12 14:15:53;;;;;;;1.10;1.10;;;27.30;99.90;;;;;;4974917;28;20583;-71
2022/07/12 14:18:44;;;;;;;1.23;1.13;;;27.30;99.90;;;;;;4969020;28;20453;-73
2022/07/12 14:21:35;;;;;;;1.20;1.10;;;27.40;99.90;;;;;;4988075;28;20556;-71
2022/07/12 14:24:24;;;;;;;1.10;1.00;;;27.50;99.90;;;;;;4972256;28;20549;-71
2022/07/12 14:27:12;;;;;;;1.37;1.23;;;27.70;99.90;;;;;;4980735;28;20457;-71
2022/07/12 14:30:01;;;;;;;1.20;1.20;;;27.70;99.90;;;;;;4982537;28;20453;-72
2022/07/12 14:32:49;;;;;;;0.90;0.90;;;27.60;99.90;;;;;;4978023;28;20469;-72
2022/07/12 14:35:42;;;;;;;1.20;1.00;;;27.70;99.90;;;;;;4980724;28;20488;-71
2022/07/12 14:38:30;;;;;;;1.07;0.90;;;27.80;99.90;;;;;;4975991;28;20601;-74
2022/07/12 14:44:31;;;;;;;1.20;1.20;;;28.10;99.90;;;;;;4980202;28;20518;-71
2022/07/12 14:47:20;;;;;;;1.40;1.30;;;28.20;99.90;;;;;;4976478;28;20460;-73
2022/07/12 14:50:09;;;;;;;1.07;1.07;;;28.20;99.90;;;;;;4998496;28;20487;-73
2022/07/12 14:52:58;;;;;;;1.20;1.20;;;28.30;99.90;;;;;;4981674;28;20564;-72
2022/07/12 14:55:49;;;;;;;1.40;1.30;;;28.20;99.90;;;;;;4990362;28;20485;-71
2022/07/12 14:58:38;;;;;;;1.50;1.33;;;28.20;99.90;;;;;;4975813;28;20484;-72
2022/07/12 15:01:27;;;;;;;1.83;1.40;;;28.10;99.90;;;;;;4969801;28;20467;-73
2022/07/12 15:04:19;;;;;;;1.20;1.20;;;28.10;99.90;;;;;;4971976;28;20488;-73
2022/07/12 15:07:10;;;;;;;2.13;1.30;;;28.10;99.90;;;;;;4970139;28;20534;-72
2022/07/12 15:13:26;;;;;;;1.33;1.23;;;28.10;99.90;;;;;;4976704;28;20531;-74
2022/07/12 15:16:14;;;;;;;1.40;1.40;;;28.10;99.90;;;;;;4976625;28;20481;-74
2022/07/12 15:19:07;;;;;;;1.30;1.20;;;28.10;99.90;;;;;;4983348;28;20811;-72
2022/07/12 15:21:56;;;;;;;1.20;1.20;;;28.00;99.90;;;;;;4976354;28;20485;-72
2022/07/12 15:24:44;;;;;;;1.23;0.90;;;27.90;99.90;;;;;;4976109;28;20517;-72
2022/07/12 15:27:37;;;;;;;1.97;1.30;;;27.90;99.90;;;;;;4984001;28;21214;-72
2022/07/12 15:30:25;;;;;;;3.23;1.30;;;27.90;99.90;;;;;;4981891;28;20832;-72
2022/07/12 15:33:15;;;;;;;1.40;1.30;;;27.80;99.90;;;;;;4983132;28;20567;-72
2022/07/12 15:36:06;;;;;;;5.17;2.13;;;27.80;99.90;;;;;;4981568;28;20445;-72
2022/07/12 15:38:57;;;;;;;1.50;1.40;;;27.80;99.90;;;;;;4986244;28;20607;-72
2022/07/12 15:41:45;;;;;;;1.40;1.30;;;27.90;99.90;;;;;;4985757;28;20573;-72
2022/07/12 15:44:38;;;;;;;2.03;1.67;;;27.90;99.90;;;;;;4980294;28;20467;-72
2022/07/12 15:47:26;;;;;;;1.83;1.50;;;27.80;99.90;;;;;;4980860;28;20528;-72
2022/07/12 15:50:18;;;;;;;2.23;1.60;;;27.80;99.90;;;;;;4986745;28;20457;-72
2022/07/12 15:59:20;;;;;;;1.80;1.70;;;27.80;99.90;;;;;;4986769;28;20504;-70
2022/07/12 16:02:10;;;;;;;1.93;1.83;;;27.90;99.90;;;;;;4972070;28;20564;-72
2022/07/12 16:05:12;;;;;;;1.73;1.63;;;27.90;99.90;;;;;;4976312;28;20449;-70
2022/07/12 16:08:09;;;;;;;1.97;1.87;;;28.00;99.90;;;;;;4979886;28;20544;-70
2022/07/12 16:14:05;;;;;;;2.03;1.93;;;28.20;99.90;;;;;;4986249;28;20544;-70
2022/07/12 16:17:17;;;;;;;2.10;2.00;;;28.10;99.90;;;;;;4981316;28;20453;-72
2022/07/12 16:20:09;;;;;;;2.17;2.07;;;28.10;99.90;;;;;;4988039;28;20477;-71
2022/07/12 16:26:11;;;;;;;2.70;2.50;;;28.10;99.90;;;;;;4965155;28;20532;-72
2022/07/12 16:28:59;;;;;;;3.60;3.30;;;27.90;99.90;;;;;;4965179;28;20462;-72
2022/07/12 16:31:53;;;;;;;3.00;2.80;;;27.90;99.90;;;;;;4970359;28;21060;-73
2022/07/12 16:35:02;;;;;;;2.93;2.83;;;27.90;99.90;;;;;;4969670;28;20515;-72
2022/07/12 16:37:55;;;;;;;3.27;3.07;;;27.90;99.90;;;;;;4980430;28;20454;-73
2022/07/12 16:40:43;;;;;;;3.17;2.97;;;27.80;99.90;;;;;;4971813;28;20539;-73
2022/07/12 16:43:36;;;;;;;3.00;2.80;;;27.70;99.90;;;;;;4978683;28;20504;-73
2022/07/12 16:46:33;;;;;;;3.30;3.10;;;27.60;99.90;;;;;;4967761;28;20573;-72
2022/07/12 16:49:25;;;;;;;3.20;3.00;;;27.60;99.90;;;;;;4976630;28;20841;-72
2022/07/12 16:52:14;;;;;;;3.77;3.33;;;27.60;99.90;;;;;;4966673;28;20553;-72
2022/07/12 16:55:09;;;;;;;4.03;3.57;;;27.60;99.90;;;;;;4973362;28;20575;-72
2022/07/12 16:58:21;;;;;;;3.73;3.53;;;27.60;99.90;;;;;;4971892;28;20450;-73
2022/07/12 17:01:12;;;;;;;3.50;3.30;;;27.60;99.90;;;;;;4970061;28;20454;-72
2022/07/12 17:04:01;;;;;;;3.63;3.43;;;27.50;99.90;;;;;;4981050;28;20538;-72
2022/07/12 17:06:53;;;;;;;3.40;3.20;;;27.50;99.90;;;;;;4972448;28;20493;-71
2022/07/12 17:09:46;;;;;;;3.87;3.10;;;27.40;99.90;;;;;;4973236;28;20489;-72
2022/07/12 17:12:36;;;;;;;3.20;3.00;;;27.30;99.90;;;;;;4971764;28;20658;-71